Time;durP1;ratioP1;P1;durP2;ratioP2;P2;SDS_P1;SDS_P2;PMS_P1;PMS_P2;Temp;Humidity;BMP_temperature;BMP_pressure;BME280_temperature;BME280_humidity;BME280_pressure;Samples;Min_cycle;Max_cycle;Signal;HPM_P1;HPM_P2
2023/09/17 00:01:52;;;;;;;;;;;18.10;99.90;;;;;;5026774;28;19914;-68
2023/09/17 00:04:18;;;;;;;;;;;18.10;99.90;;;;;;5033266;28;20255;-68
2023/09/17 00:06:43;;;;;;;;;;;18.10;99.90;;;;;;5035216;28;19909;-68
2023/09/17 00:09:09;;;;;;;;;;;18.10;99.90;;;;;;5031877;28;19909;-68
2023/09/17 00:11:35;;;;;;;;;;;18.10;99.90;;;;;;5025148;28;20024;-79
2023/09/17 00:14:00;;;;;;;;;;;18.00;99.90;;;;;;5031627;28;19940;-68
2023/09/17 00:16:31;;;;;;;;;;;18.10;99.90;;;;;;5034363;28;19955;-67
2023/09/17 00:18:57;;;;;;;;;;;18.10;99.90;;;;;;5040910;28;19966;-68
2023/09/17 00:21:22;;;;;;;;;;;18.00;99.90;;;;;;5032510;28;20324;-67
2023/09/17 00:23:48;;;;;;;;;;;18.00;99.90;;;;;;5030200;28;19937;-68
2023/09/17 00:26:14;;;;;;;;;;;18.10;99.90;;;;;;5030180;28;19917;-78
2023/09/17 00:28:39;;;;;;;;;;;18.10;99.90;;;;;;5033265;28;20296;-67
2023/09/17 00:31:05;;;;;;;;;;;18.10;99.90;;;;;;5033985;28;20410;-68
2023/09/17 00:33:30;;;;;;;;;;;18.10;99.90;;;;;;5030867;28;21361;-67
2023/09/17 00:35:56;;;;;;;;;;;18.10;99.90;;;;;;5031210;28;20251;-68
2023/09/17 00:38:21;;;;;;;;;;;18.10;99.90;;;;;;5039687;28;19913;-68
2023/09/17 00:40:47;;;;;;;;;;;18.00;99.90;;;;;;5036382;28;19909;-68
2023/09/17 00:43:13;;;;;;;;;;;18.00;99.90;;;;;;5030470;28;20002;-68
2023/09/17 00:45:40;;;;;;;;;;;18.00;99.90;;;;;;5032974;28;19910;-68
2023/09/17 00:48:06;;;;;;;;;;;17.90;99.90;;;;;;5031769;28;19913;-68
2023/09/17 00:50:32;;;;;;;;;;;18.00;99.90;;;;;;5020479;28;19916;-68
2023/09/17 00:52:58;;;;;;;;;;;18.00;99.90;;;;;;5033892;28;20181;-68
2023/09/17 00:55:25;;;;;;;;;;;18.00;99.90;;;;;;5030793;28;19955;-68
2023/09/17 00:57:51;;;;;;;;;;;18.00;99.90;;;;;;5034171;28;19991;-67
2023/09/17 01:00:20;;;;;;;;;;;18.00;99.90;;;;;;5041886;28;19996;-68
2023/09/17 01:02:47;;;;;;;;;;;18.00;99.90;;;;;;5033651;28;19917;-68
2023/09/17 01:05:13;;;;;;;;;;;18.00;99.90;;;;;;5034938;28;20316;-67
2023/09/17 01:07:39;;;;;;;;;;;18.00;99.90;;;;;;5034301;28;20000;-68
2023/09/17 01:10:05;;;;;;;;;;;18.00;99.90;;;;;;5035002;28;19948;-76
2023/09/17 01:12:31;;;;;;;;;;;17.90;99.90;;;;;;5034538;28;19947;-68
2023/09/17 01:14:57;;;;;;;;;;;17.90;99.90;;;;;;5034437;28;19905;-68
2023/09/17 01:17:27;;;;;;;;;;;17.90;99.90;;;;;;5034310;28;19931;-68
2023/09/17 01:19:55;;;;;;;;;;;17.90;99.90;;;;;;5033722;28;20208;-68
2023/09/17 01:22:26;;;;;;;;;;;17.90;99.90;;;;;;5034246;28;19917;-68
2023/09/17 01:25:04;;;;;;;;;;;17.90;99.90;;;;;;5032017;28;19909;-68
2023/09/17 01:27:30;;;;;;;;;;;17.80;99.90;;;;;;5034058;28;19917;-67
2023/09/17 01:29:56;;;;;;;;;;;17.80;99.90;;;;;;5033218;28;19966;-68
2023/09/17 01:32:21;;;;;;;;;;;17.80;99.90;;;;;;5034430;28;19983;-69
2023/09/17 01:34:52;;;;;;;;;;;17.80;99.90;;;;;;5029242;28;19914;-68
2023/09/17 01:37:35;;;;;;;;;;;17.80;99.90;;;;;;5033365;28;19905;-68
2023/09/17 01:40:05;;;;;;;;;;;17.80;99.90;;;;;;5030180;28;20308;-76
2023/09/17 01:42:31;;;;;;;;;;;17.80;99.90;;;;;;5030921;28;19924;-68
2023/09/17 01:44:58;;;;;;;;;;;17.70;99.90;;;;;;5036910;28;19905;-67
2023/09/17 01:47:24;;;;;;;;;;;17.70;99.90;;;;;;5037134;28;20039;-68
2023/09/17 01:49:50;;;;;;;;;;;17.70;99.90;;;;;;5036299;28;19905;-68
2023/09/17 01:52:20;;;;;;;;;;;17.60;99.90;;;;;;5037544;28;19967;-75
2023/09/17 01:54:46;;;;;;;;;;;17.60;99.90;;;;;;5034502;28;19917;-67
2023/09/17 01:57:11;;;;;;;;;;;17.60;99.90;;;;;;5026859;28;19996;-68
2023/09/17 01:59:37;;;;;;;;;;;17.60;99.90;;;;;;5032391;28;19912;-67
2023/09/17 02:02:03;;;;;;;;;;;17.60;99.90;;;;;;5033994;28;20011;-68
2023/09/17 02:04:28;;;;;;;;;;;17.60;99.90;;;;;;5036931;28;19912;-68
2023/09/17 02:06:54;;;;;;;;;;;17.60;99.90;;;;;;5031937;28;19917;-68
2023/09/17 02:09:21;;;;;;;;;;;17.50;99.90;;;;;;5033170;28;20043;-68
2023/09/17 02:11:47;;;;;;;;;;;17.60;99.90;;;;;;5037550;28;20235;-67
2023/09/17 02:14:13;;;;;;;;;;;17.50;99.90;;;;;;5036924;28;19909;-79
2023/09/17 02:16:38;;;;;;;;;;;17.50;99.90;;;;;;5034958;28;20284;-67
2023/09/17 02:19:04;;;;;;;;;;;17.50;99.90;;;;;;5028475;28;20288;-76
2023/09/17 02:21:29;;;;;;;;;;;17.50;99.90;;;;;;5042534;28;19913;-67
2023/09/17 02:23:55;;;;;;;;;;;17.50;99.90;;;;;;5036768;28;19956;-77
2023/09/17 02:26:21;;;;;;;;;;;17.50;99.90;;;;;;5039564;28;20007;-67
2023/09/17 02:28:47;;;;;;;;;;;17.50;99.90;;;;;;5042752;28;19915;-68
2023/09/17 02:31:13;;;;;;;;;;;17.50;99.90;;;;;;5047759;28;19909;-68
2023/09/17 02:33:39;;;;;;;;;;;17.50;99.90;;;;;;5039659;28;19955;-67
2023/09/17 02:36:06;;;;;;;;;;;17.50;99.90;;;;;;5038935;28;19909;-68
2023/09/17 02:38:31;;;;;;;;;;;17.60;99.90;;;;;;5040490;28;19916;-67
2023/09/17 02:40:57;;;;;;;;;;;17.50;99.90;;;;;;5035317;28;19917;-68
2023/09/17 02:43:22;;;;;;;;;;;17.60;99.90;;;;;;5036672;28;19913;-68
2023/09/17 02:45:49;;;;;;;;;;;17.60;99.90;;;;;;5043790;28;20331;-68
2023/09/17 02:48:15;;;;;;;;;;;17.60;99.90;;;;;;5036431;28;19944;-67
2023/09/17 02:50:40;;;;;;;;;;;17.50;99.90;;;;;;5036966;28;19963;-68
2023/09/17 02:53:07;;;;;;;;;;;17.60;99.90;;;;;;5035614;28;19936;-68
2023/09/17 02:55:34;;;;;;;;;;;17.60;99.90;;;;;;5036233;28;19913;-68
2023/09/17 02:58:02;;;;;;;;;;;17.50;99.90;;;;;;5038466;28;20007;-68
2023/09/17 03:00:33;;;;;;;;;;;17.50;99.90;;;;;;5036722;28;19916;-68
2023/09/17 03:02:59;;;;;;;;;;;17.60;99.90;;;;;;5034535;28;19944;-68
2023/09/17 03:05:25;;;;;;;;;;;17.50;99.90;;;;;;5036487;28;19948;-76
2023/09/17 03:07:51;;;;;;;;;;;17.60;99.90;;;;;;5039782;28;19909;-68
2023/09/17 03:10:18;;;;;;;;;;;17.60;99.90;;;;;;5036504;28;19905;-68
2023/09/17 03:12:47;;;;;;;;;;;17.60;99.90;;;;;;5032357;28;19909;-67
2023/09/17 03:15:13;;;;;;;;;;;17.50;99.90;;;;;;5036065;28;19963;-68
2023/09/17 03:17:39;;;;;;;;;;;17.50;99.90;;;;;;5036496;28;19936;-68
2023/09/17 03:20:14;;;;;;;;;;;17.50;99.90;;;;;;5041375;28;19917;-68
2023/09/17 03:22:40;;;;;;;;;;;17.60;99.90;;;;;;5034314;28;20213;-68
2023/09/17 03:25:06;;;;;;;;;;;17.60;99.90;;;;;;5047225;28;19924;-68
2023/09/17 03:27:33;;;;;;;;;;;17.50;99.90;;;;;;5036040;28;19920;-68
2023/09/17 03:29:59;;;;;;;;;;;17.60;99.90;;;;;;5035478;28;19948;-75
2023/09/17 03:32:25;;;;;;;;;;;17.60;99.90;;;;;;5043775;28;20002;-68
2023/09/17 03:34:50;;;;;;;;;;;17.60;99.90;;;;;;5034878;28;19909;-68
2023/09/17 03:37:16;;;;;;;;;;;17.50;99.90;;;;;;5035074;28;20015;-68
2023/09/17 03:39:42;;;;;;;;;;;17.50;99.90;;;;;;5038876;28;19917;-76
2023/09/17 03:42:07;;;;;;;;;;;17.50;99.90;;;;;;5030983;28;19920;-68
2023/09/17 03:44:33;;;;;;;;;;;17.50;99.90;;;;;;5032461;28;20308;-68
2023/09/17 03:46:58;;;;;;;;;;;17.40;99.90;;;;;;5031671;28;19909;-67
2023/09/17 03:49:26;;;;;;;;;;;17.40;99.90;;;;;;5031450;28;19909;-68
2023/09/17 03:51:52;;;;;;;;;;;17.40;99.90;;;;;;5031198;28;19909;-68
2023/09/17 03:54:17;;;;;;;;;;;17.40;99.90;;;;;;5034610;28;20256;-68
2023/09/17 03:56:43;;;;;;;;;;;17.40;99.90;;;;;;5030495;28;20004;-76
2023/09/17 03:59:09;;;;;;;;;;;17.40;99.90;;;;;;5032988;28;19935;-68
2023/09/17 04:01:34;;;;;;;;;;;17.40;99.90;;;;;;5034381;28;19919;-68
2023/09/17 04:04:00;;;;;;;;;;;17.40;99.90;;;;;;5031834;28;20342;-68
2023/09/17 04:06:26;;;;;;;;;;;17.30;99.90;;;;;;5026549;28;19956;-70
2023/09/17 04:08:51;;;;;;;;;;;17.30;99.90;;;;;;5035117;28;19909;-67
2023/09/17 04:11:17;;;;;;;;;;;17.30;99.90;;;;;;5035052;28;20020;-67
2023/09/17 04:13:43;;;;;;;;;;;17.20;99.90;;;;;;5026941;28;19953;-67
2023/09/17 04:16:09;;;;;;;;;;;17.20;99.90;;;;;;5025247;28;19917;-67
2023/09/17 04:18:35;;;;;;;;;;;17.20;99.90;;;;;;5030749;28;20487;-68
2023/09/17 04:21:01;;;;;;;;;;;17.10;99.90;;;;;;5035454;28;19909;-67
2023/09/17 04:23:26;;;;;;;;;;;17.10;99.90;;;;;;5030492;28;19909;-68
2023/09/17 04:25:53;;;;;;;;;;;17.10;99.90;;;;;;5040558;28;19913;-68
2023/09/17 04:28:19;;;;;;;;;;;17.10;99.90;;;;;;5021536;28;19910;-67
2023/09/17 04:30:44;;;;;;;;;;;17.10;99.90;;;;;;5035229;28;19909;-67
2023/09/17 04:33:10;;;;;;;;;;;17.10;99.90;;;;;;5035344;28;19913;-68
2023/09/17 04:35:36;;;;;;;;;;;17.10;99.90;;;;;;5034204;28;19909;-68
2023/09/17 04:38:01;;;;;;;;;;;17.10;99.90;;;;;;5034825;28;19979;-68
2023/09/17 04:40:28;;;;;;;;;;;17.20;99.90;;;;;;5034458;28;19905;-67
2023/09/17 04:42:53;;;;;;;;;;;17.20;99.90;;;;;;5033366;28;19960;-68
2023/09/17 04:45:32;;;;;;;;;;;17.20;99.90;;;;;;5041037;28;19944;-67
2023/09/17 04:47:58;;;;;;;;;;;17.20;99.90;;;;;;5034803;28;19963;-76
2023/09/17 04:50:23;;;;;;;;;;;17.10;99.90;;;;;;5033421;28;19997;-67
2023/09/17 04:52:49;;;;;;;;;;;17.20;99.90;;;;;;5031952;28;19998;-67
2023/09/17 04:55:14;;;;;;;;;;;17.10;99.90;;;;;;5034777;28;20126;-68
2023/09/17 04:57:40;;;;;;;;;;;17.10;99.90;;;;;;5033575;28;20275;-68
2023/09/17 05:00:10;;;;;;;;;;;17.20;99.90;;;;;;5032992;28;19917;-67
2023/09/17 05:02:36;;;;;;;;;;;17.10;99.90;;;;;;5034323;28;20016;-67
2023/09/17 05:05:02;;;;;;;;;;;17.10;99.90;;;;;;5034831;28;20000;-76
2023/09/17 05:07:27;;;;;;;;;;;17.10;99.90;;;;;;5032657;28;20177;-68
2023/09/17 05:09:53;;;;;;;;;;;17.10;99.90;;;;;;5034873;28;19913;-67
2023/09/17 05:12:18;;;;;;;;;;;17.10;99.90;;;;;;5034769;28;20348;-68
2023/09/17 05:14:44;;;;;;;;;;;17.00;99.90;;;;;;5030222;28;19913;-76
2023/09/17 05:17:10;;;;;;;;;;;17.10;99.90;;;;;;5032413;28;19909;-67
2023/09/17 05:19:35;;;;;;;;;;;17.00;99.90;;;;;;5045519;28;20214;-67
2023/09/17 05:22:01;;;;;;;;;;;17.00;99.90;;;;;;5034862;28;20007;-67
2023/09/17 05:24:26;;;;;;;;;;;17.00;99.90;;;;;;5034514;28;20003;-68
2023/09/17 05:26:52;;;;;;;;;;;17.00;99.90;;;;;;5035483;28;20000;-67
2023/09/17 05:29:17;;;;;;;;;;;17.00;99.90;;;;;;5028793;28;20269;-68
2023/09/17 05:31:43;;;;;;;;;;;16.90;99.90;;;;;;5032665;28;20220;-70
2023/09/17 05:34:08;;;;;;;;;;;17.00;99.90;;;;;;5026859;28;19912;-67
2023/09/17 05:36:34;;;;;;;;;;;17.00;99.90;;;;;;5032979;28;19913;-67
2023/09/17 05:39:00;;;;;;;;;;;16.90;99.90;;;;;;5037812;28;19999;-67
2023/09/17 05:41:25;;;;;;;;;;;16.90;99.90;;;;;;5037628;28;19964;-72
2023/09/17 05:43:51;;;;;;;;;;;16.90;99.90;;;;;;5037869;28;20279;-68
2023/09/17 05:46:16;;;;;;;;;;;16.90;99.90;;;;;;5045887;28;19904;-68
2023/09/17 05:48:42;;;;;;;;;;;16.90;99.90;;;;;;5039141;28;19917;-67
2023/09/17 05:51:07;;;;;;;;;;;16.90;99.90;;;;;;5037494;28;19905;-68
2023/09/17 05:53:33;;;;;;;;;;;16.90;99.90;;;;;;5037135;28;19912;-68
2023/09/17 05:55:59;;;;;;;;;;;16.90;99.90;;;;;;5037547;28;19905;-67
2023/09/17 05:58:24;;;;;;;;;;;16.90;99.90;;;;;;5038496;28;19912;-67
2023/09/17 06:00:50;;;;;;;;;;;16.90;99.90;;;;;;5037831;28;19912;-68
2023/09/17 06:03:16;;;;;;;;;;;16.80;99.90;;;;;;5040279;28;19917;-68
2023/09/17 06:05:42;;;;;;;;;;;16.80;99.90;;;;;;5038282;28;19905;-68
2023/09/17 06:08:08;;;;;;;;;;;16.80;99.90;;;;;;5035843;28;19916;-68
2023/09/17 06:10:33;;;;;;;;;;;16.80;99.90;;;;;;5037587;28;19973;-67
2023/09/17 06:12:59;;;;;;;;;;;16.80;99.90;;;;;;5037094;28;20243;-78
2023/09/17 06:15:25;;;;;;;;;;;16.80;99.90;;;;;;5042837;28;19927;-77
2023/09/17 06:17:51;;;;;;;;;;;16.70;99.90;;;;;;5036946;28;20304;-67
2023/09/17 06:20:17;;;;;;;;;;;16.70;99.90;;;;;;5035948;28;19909;-78
2023/09/17 06:22:45;;;;;;;;;;;16.70;99.90;;;;;;5044724;28;20232;-67
2023/09/17 06:25:11;;;;;;;;;;;16.70;99.90;;;;;;5037138;28;19909;-80
2023/09/17 06:27:37;;;;;;;;;;;16.70;99.90;;;;;;5044656;28;20311;-67
2023/09/17 06:30:03;;;;;;;;;;;16.60;99.90;;;;;;5036996;28;19916;-67
2023/09/17 06:32:28;;;;;;;;;;;16.60;99.90;;;;;;5046463;28;20231;-67
2023/09/17 06:34:54;;;;;;;;;;;16.50;99.90;;;;;;5036483;28;19941;-67
2023/09/17 06:37:19;;;;;;;;;;;16.50;99.90;;;;;;5036934;28;19916;-67
2023/09/17 06:39:45;;;;;;;;;;;16.50;99.90;;;;;;5044584;28;19917;-78
2023/09/17 06:42:11;;;;;;;;;;;16.50;99.90;;;;;;5036277;28;19921;-76
2023/09/17 06:44:36;;;;;;;;;;;16.50;99.90;;;;;;5043616;28;19917;-67
2023/09/17 06:47:02;;;;;;;;;;;16.50;99.90;;;;;;5036239;28;19916;-67
2023/09/17 06:49:28;;;;;;;;;;;16.50;99.90;;;;;;5036226;28;20323;-68
2023/09/17 06:51:54;;;;;;;;;;;16.50;99.90;;;;;;5038918;28;19947;-80
2023/09/17 06:54:19;;;;;;;;;;;16.50;99.90;;;;;;5034153;28;20211;-67
2023/09/17 06:56:45;;;;;;;;;;;16.50;99.90;;;;;;5041905;28;19920;-67
2023/09/17 06:59:10;;;;;;;;;;;16.40;99.90;;;;;;5038850;28;19909;-67
2023/09/17 07:01:39;;;;;;;;;;;16.40;99.90;;;;;;5033258;28;19909;-67
2023/09/17 07:04:05;;;;;;;;;;;16.30;99.90;;;;;;5038769;28;20043;-68
2023/09/17 07:06:30;;;;;;;;;;;16.30;99.90;;;;;;5035450;28;20016;-68
2023/09/17 07:08:57;;;;;;;;;;;16.20;99.90;;;;;;5041764;28;19909;-70
2023/09/17 07:11:22;;;;;;;;;;;16.10;99.90;;;;;;5050823;28;19909;-68
2023/09/17 07:13:48;;;;;;;;;;;16.10;99.90;;;;;;5047707;28;19915;-69
2023/09/17 07:16:15;;;;;;;;;;;16.00;99.90;;;;;;5038464;28;20299;-68
2023/09/17 07:18:41;;;;;;;;;;;16.00;99.90;;;;;;5032090;28;20382;-70
2023/09/17 07:21:06;;;;;;;;;;;15.90;99.90;;;;;;5039709;28;19952;-69
2023/09/17 07:23:32;;;;;;;;;;;15.90;99.90;;;;;;5038152;28;19913;-70
2023/09/17 07:25:58;;;;;;;;;;;15.80;99.90;;;;;;5035390;28;19916;-70
2023/09/17 07:28:23;;;;;;;;;;;15.80;99.90;;;;;;5036560;28;19917;-69
2023/09/17 07:30:55;;;;;;;;;;;15.80;99.90;;;;;;5036333;28;19960;-70
2023/09/17 07:33:21;;;;;;;;;;;15.80;99.90;;;;;;5038978;28;20003;-70
2023/09/17 07:35:46;;;;;;;;;;;15.80;99.90;;;;;;5043536;28;19999;-71
2023/09/17 07:38:12;;;;;;;;;;;15.80;99.90;;;;;;5047944;28;20288;-69
2023/09/17 07:40:37;;;;;;;;;;;15.70;99.90;;;;;;5039198;28;19936;-69
2023/09/17 07:43:04;;;;;;;;;;;15.70;99.90;;;;;;5040380;28;19920;-71
2023/09/17 07:45:32;;;;;;;;;;;15.70;99.90;;;;;;5043859;28;19924;-70
2023/09/17 07:47:58;;;;;;;;;;;15.80;99.90;;;;;;5037768;28;19908;-70
2023/09/17 07:50:24;;;;;;;;;;;15.80;99.90;;;;;;5032066;28;20254;-70
2023/09/17 07:52:49;;;;;;;;;;;15.80;99.90;;;;;;5045483;28;19905;-71
2023/09/17 07:55:16;;;;;;;;;;;15.80;99.90;;;;;;5039235;28;20274;-77
2023/09/17 07:57:42;;;;;;;;;;;15.80;99.90;;;;;;5045223;28;19908;-70
2023/09/17 08:00:08;;;;;;;;;;;15.80;99.90;;;;;;5042700;28;19987;-71
2023/09/17 08:02:33;;;;;;;;;;;15.80;99.90;;;;;;5042749;28;19917;-71
2023/09/17 08:04:59;;;;;;;;;;;15.90;99.90;;;;;;5045211;28;19905;-70
2023/09/17 08:07:24;;;;;;;;;;;15.80;99.90;;;;;;5049479;28;19911;-70
2023/09/17 08:09:50;;;;;;;;;;;15.90;99.90;;;;;;5046897;28;19915;-80
2023/09/17 08:12:15;;;;;;;;;;;15.90;99.90;;;;;;5050880;28;19916;-70
2023/09/17 08:14:45;;;;;;;;;;;15.90;99.90;;;;;;5043495;28;19905;-70
2023/09/17 08:17:10;;;;;;;;;;;15.90;99.90;;;;;;5042582;28;19966;-70
2023/09/17 08:19:36;;;;;;;;;;;15.90;99.90;;;;;;5034032;28;20231;-70
2023/09/17 08:22:01;;;;;;;;;;;15.90;99.90;;;;;;5036623;28;19913;-71
2023/09/17 08:24:27;;;;;;;;;;;15.80;99.90;;;;;;5044072;28;19912;-70
2023/09/17 08:26:54;;;;;;;;;;;15.80;99.90;;;;;;5044203;28;19917;-79
2023/09/17 08:29:20;;;;;;;;;;;15.80;99.90;;;;;;5037757;28;19909;-70
2023/09/17 08:31:47;;;;;;;;;;;15.80;99.90;;;;;;5048946;28;20263;-70
2023/09/17 08:34:13;;;;;;;;;;;15.70;99.90;;;;;;5044691;28;20110;-70
2023/09/17 08:36:38;;;;;;;;;;;15.70;99.90;;;;;;5048185;28;19908;-71
2023/09/17 08:39:06;;;;;;;;;;;15.70;99.90;;;;;;5033491;28;20007;-70
2023/09/17 08:41:34;;;;;;;;;;;15.80;99.90;;;;;;5043910;28;20272;-70
2023/09/17 08:44:01;;;;;;;;;;;15.80;99.90;;;;;;5037707;28;19913;-76
2023/09/17 08:46:28;;;;;;;;;;;15.80;99.90;;;;;;5038333;28;19915;-70
2023/09/17 08:48:54;;;;;;;;;;;15.80;99.90;;;;;;5046693;28;19947;-69
2023/09/17 08:51:23;;;;;;;;;;;15.90;99.90;;;;;;5041231;28;19967;-69
2023/09/17 08:53:57;;;;;;;;;;;15.90;99.90;;;;;;5036965;28;19950;-69
2023/09/17 08:56:23;;;;;;;;;;;15.90;99.90;;;;;;5029392;28;20189;-70
2023/09/17 08:58:55;;;;;;;;;;;15.90;99.90;;;;;;5045228;28;20030;-70
2023/09/17 09:01:23;;;;;;;;;;;15.90;99.90;;;;;;5034059;28;20252;-69
2023/09/17 09:03:51;;;;;;;;;;;16.00;99.90;;;;;;5035032;28;19967;-70
2023/09/17 09:06:18;;;;;;;;;;;16.00;99.90;;;;;;5030658;28;19910;-69
2023/09/17 09:08:44;;;;;;;;;;;16.00;99.90;;;;;;5032976;28;20003;-70
2023/09/17 09:11:10;;;;;;;;;;;16.00;99.90;;;;;;5033617;28;19906;-69
2023/09/17 09:13:36;;;;;;;;;;;16.00;99.90;;;;;;5029923;28;19913;-77
2023/09/17 09:16:03;;;;;;;;;;;16.00;99.90;;;;;;5032712;28;19916;-76
2023/09/17 09:18:29;;;;;;;;;;;16.10;99.90;;;;;;5035172;28;19909;-77
2023/09/17 09:20:55;;;;;;;;;;;16.20;99.90;;;;;;5036703;28;20302;-70
2023/09/17 09:23:21;;;;;;;;;;;16.20;99.90;;;;;;5037767;28;19959;-70
2023/09/17 09:25:46;;;;;;;;;;;16.20;99.90;;;;;;5040409;28;21914;-70
2023/09/17 09:28:12;;;;;;;;;;;16.30;99.90;;;;;;5045740;28;19913;-69
2023/09/17 09:30:38;;;;;;;;;;;16.40;99.90;;;;;;5039095;28;19905;-70
2023/09/17 09:33:03;;;;;;;;;;;16.40;99.90;;;;;;5041938;28;19909;-69
2023/09/17 09:35:29;;;;;;;;;;;16.50;99.90;;;;;;5029511;28;19905;-70
2023/09/17 09:37:54;;;;;;;;;;;16.60;99.90;;;;;;5029850;28;19959;-70
2023/09/17 09:40:21;;;;;;;;;;;16.50;99.90;;;;;;5029012;28;20295;-70
2023/09/17 09:42:48;;;;;;;;;;;16.40;99.90;;;;;;5030561;28;20193;-69
2023/09/17 09:45:15;;;;;;;;;;;16.50;99.90;;;;;;5032552;28;20584;-69
2023/09/17 09:47:45;;;;;;;;;;;16.40;99.90;;;;;;5032686;28;19917;-69
2023/09/17 09:50:20;;;;;;;;;;;16.40;99.90;;;;;;5035040;28;19916;-73
2023/09/17 09:52:48;;;;;;;;;;;16.40;99.90;;;;;;5034187;28;19956;-69
2023/09/17 09:55:13;;;;;;;;;;;16.40;99.90;;;;;;5040526;28;20265;-70
2023/09/17 09:57:39;;;;;;;;;;;16.40;99.90;;;;;;5032837;28;20004;-70
2023/09/17 10:00:14;;;;;;;;;;;16.40;99.90;;;;;;5028324;28;20305;-70
2023/09/17 10:02:40;;;;;;;;;;;16.40;99.90;;;;;;5035524;28;19996;-70
2023/09/17 10:05:07;;;;;;;;;;;16.50;99.90;;;;;;5036961;28;19935;-69
2023/09/17 10:07:33;;;;;;;;;;;16.40;99.90;;;;;;5037794;28;19905;-69
2023/09/17 10:10:00;;;;;;;;;;;16.40;99.90;;;;;;5033584;28;19909;-69
2023/09/17 10:12:26;;;;;;;;;;;16.40;99.90;;;;;;5037270;28;19909;-74
2023/09/17 10:14:52;;;;;;;;;;;16.50;99.90;;;;;;5042775;28;19909;-74
2023/09/17 10:17:17;;;;;;;;;;;16.40;99.90;;;;;;5036861;28;20181;-70
2023/09/17 10:19:45;;;;;;;;;;;16.50;99.90;;;;;;5036467;28;19964;-68
2023/09/17 10:22:12;;;;;;;;;;;16.50;99.90;;;;;;5037269;28;19924;-68
2023/09/17 10:24:38;;;;;;;;;;;16.60;99.90;;;;;;5037489;28;19912;-68
2023/09/17 10:27:08;;;;;;;;;;;16.70;99.90;;;;;;5032604;28;19917;-82
2023/09/17 10:29:38;;;;;;;;;;;16.60;99.90;;;;;;5037219;28;19995;-68
2023/09/17 10:32:04;;;;;;;;;;;16.70;99.90;;;;;;5035286;28;20331;-68
2023/09/17 10:34:35;;;;;;;;;;;16.70;99.90;;;;;;5038281;28;19916;-69
2023/09/17 10:37:04;;;;;;;;;;;16.60;99.90;;;;;;5048457;28;19924;-69
2023/09/17 10:39:30;;;;;;;;;;;16.60;99.90;;;;;;5038597;28;19909;-68
2023/09/17 10:41:57;;;;;;;;;;;16.60;99.90;;;;;;5039966;28;19956;-68
2023/09/17 10:44:24;;;;;;;;;;;16.60;99.90;;;;;;5036344;28;19950;-69
2023/09/17 10:46:50;;;;;;;;;;;16.60;99.90;;;;;;5037869;28;20343;-69
2023/09/17 10:49:17;;;;;;;;;;;16.60;99.90;;;;;;5036296;28;19908;-68
2023/09/17 10:51:44;;;;;;;;;;;16.60;99.90;;;;;;5035545;28;20323;-68
2023/09/17 10:54:10;;;;;;;;;;;16.60;99.90;;;;;;5040215;28;19913;-68
2023/09/17 10:56:36;;;;;;;;;;;16.60;99.90;;;;;;5038583;28;19915;-69
2023/09/17 10:59:02;;;;;;;;;;;16.70;99.90;;;;;;5037012;28;20256;-68
2023/09/17 11:01:29;;;;;;;;;;;16.70;99.90;;;;;;5041948;28;19908;-68
2023/09/17 11:04:00;;;;;;;;;;;16.70;99.90;;;;;;5041851;28;19905;-68
2023/09/17 11:06:26;;;;;;;;;;;16.80;99.90;;;;;;5039221;28;19913;-68
2023/09/17 11:08:54;;;;;;;;;;;16.90;99.90;;;;;;5035291;28;19924;-68
2023/09/17 11:11:22;;;;;;;;;;;16.90;99.90;;;;;;5044254;28;20193;-81
2023/09/17 11:13:47;;;;;;;;;;;17.00;99.90;;;;;;5051472;28;19912;-68
2023/09/17 11:16:14;;;;;;;;;;;17.00;99.90;;;;;;5034172;28;19909;-68
2023/09/17 11:18:39;;;;;;;;;;;17.10;99.90;;;;;;5038465;28;19909;-68
2023/09/17 11:21:08;;;;;;;;;;;17.10;99.90;;;;;;5038567;28;20344;-80
2023/09/17 11:23:46;;;;;;;;;;;17.30;99.90;;;;;;5051945;28;19909;-68
2023/09/17 11:26:13;;;;;;;;;;;17.20;99.90;;;;;;5050626;28;20255;-68
2023/09/17 11:28:39;;;;;;;;;;;17.30;99.90;;;;;;5034063;28;19905;-69
2023/09/17 11:31:09;;;;;;;;;;;17.30;99.90;;;;;;5038222;28;19913;-69
2023/09/17 11:33:37;;;;;;;;;;;17.30;99.90;;;;;;5039754;28;19916;-69
2023/09/17 11:36:03;;;;;;;;;;;17.40;99.90;;;;;;5039383;28;20008;-69
2023/09/17 11:38:30;;;;;;;;;;;17.40;99.90;;;;;;5037311;28;20223;-69
2023/09/17 11:41:06;;;;;;;;;;;17.50;99.90;;;;;;5041794;28;19920;-68
2023/09/17 11:43:32;;;;;;;;;;;17.50;99.90;;;;;;5040968;28;19916;-69
2023/09/17 11:45:58;;;;;;;;;;;17.50;99.90;;;;;;5040422;28;19959;-69
2023/09/17 11:48:24;;;;;;;;;;;17.50;99.90;;;;;;5048955;28;19940;-69
2023/09/17 11:50:49;;;;;;;;;;;17.50;99.90;;;;;;5038551;28;19912;-69
2023/09/17 11:53:16;;;;;;;;;;;17.50;99.90;;;;;;5048468;28;19918;-69
2023/09/17 11:55:41;;;;;;;;;;;17.60;99.90;;;;;;5043781;28;19962;-68
2023/09/17 11:58:14;;;;;;;;;;;17.60;99.90;;;;;;5037296;28;19909;-68
2023/09/17 12:00:39;;;;;;;;;;;17.60;99.90;;;;;;5038771;28;19958;-68
2023/09/17 12:03:05;;;;;;;;;;;17.70;99.90;;;;;;5039780;28;19913;-69
2023/09/17 12:05:30;;;;;;;;;;;17.70;99.90;;;;;;5041848;28;20304;-69
2023/09/17 12:07:56;;;;;;;;;;;17.80;99.90;;;;;;5038646;28;19919;-78
2023/09/17 12:10:26;;;;;;;;;;;17.80;99.90;;;;;;5035695;28;19904;-69
2023/09/17 12:12:52;;;;;;;;;;;17.90;99.90;;;;;;5038708;28;19909;-69
2023/09/17 12:15:18;;;;;;;;;;;17.80;99.90;;;;;;5040580;28;19920;-69
2023/09/17 12:17:44;;;;;;;;;;;17.90;99.90;;;;;;5043689;28;19962;-69
2023/09/17 12:20:20;;;;;;;;;;;17.90;99.90;;;;;;5042654;28;19905;-69
2023/09/17 12:23:02;;;;;;;;;;;17.90;99.90;;;;;;5036753;28;19917;-69
2023/09/17 12:25:28;;;;;;;;;;;17.90;99.90;;;;;;5041914;28;19964;-69
2023/09/17 12:27:54;;;;;;;;;;;17.90;99.90;;;;;;5043078;28;19916;-69
2023/09/17 12:30:20;;;;;;;;;;;17.80;99.90;;;;;;5037415;28;20003;-68
2023/09/17 12:32:46;;;;;;;;;;;17.90;99.90;;;;;;5042263;28;20004;-84
2023/09/17 12:35:13;;;;;;;;;;;17.80;99.90;;;;;;5036989;28;19905;-69
2023/09/17 12:37:39;;;;;;;;;;;17.80;99.90;;;;;;5036245;28;20536;-69
2023/09/17 12:40:07;;;;;;;;;;;17.90;99.90;;;;;;5036535;28;19943;-81
2023/09/17 12:42:33;;;;;;;;;;;17.90;99.90;;;;;;5038161;28;19971;-69
2023/09/17 12:44:59;;;;;;;;;;;18.00;99.90;;;;;;5034741;28;19905;-69
2023/09/17 12:47:25;;;;;;;;;;;18.00;99.90;;;;;;5036011;28;19948;-80
2023/09/17 12:49:53;;;;;;;;;;;18.10;99.90;;;;;;5034646;28;19916;-69
2023/09/17 12:52:18;;;;;;;;;;;18.10;99.90;;;;;;5036978;28;19913;-68
2023/09/17 12:54:44;;;;;;;;;;;18.10;99.90;;;;;;5034510;28;19913;-69
2023/09/17 12:57:09;;;;;;;;;;;18.20;99.90;;;;;;5036380;28;19913;-69
2023/09/17 12:59:37;;;;;;;;;;;18.20;99.90;;;;;;5036760;28;19971;-69
2023/09/17 13:02:04;;;;;;;;;;;18.20;99.90;;;;;;5041371;28;20003;-68
2023/09/17 13:04:33;;;;;;;;;;;18.10;99.90;;;;;;5039030;28;19951;-68
2023/09/17 13:06:58;;;;;;;;;;;18.20;99.90;;;;;;5033105;28;19967;-69
2023/09/17 13:09:24;;;;;;;;;;;18.20;99.90;;;;;;5036625;28;19908;-69
2023/09/17 13:11:53;;;;;;;;;;;18.20;99.90;;;;;;5045670;28;19955;-68
2023/09/17 13:14:20;;;;;;;;;;;18.20;99.90;;;;;;5045053;28;19909;-69
2023/09/17 13:16:46;;;;;;;;;;;18.20;99.90;;;;;;5037956;28;19909;-69
2023/09/17 13:19:12;;;;;;;;;;;18.20;99.90;;;;;;5042558;28;19905;-69
2023/09/17 13:21:37;;;;;;;;;;;18.30;99.90;;;;;;5033689;28;20200;-69
2023/09/17 13:24:03;;;;;;;;;;;18.30;99.90;;;;;;5037484;28;19962;-68
2023/09/17 13:26:29;;;;;;;;;;;18.40;99.90;;;;;;5037859;28;19916;-69
2023/09/17 13:28:55;;;;;;;;;;;18.50;99.90;;;;;;5039631;28;20414;-68
2023/09/17 13:31:21;;;;;;;;;;;18.50;99.90;;;;;;5039541;28;19905;-81
2023/09/17 13:33:46;;;;;;;;;;;18.40;99.90;;;;;;5038192;28;19915;-69
2023/09/17 13:36:13;;;;;;;;;;;18.40;99.90;;;;;;5047798;28;19963;-68
2023/09/17 13:38:42;;;;;;;;;;;18.60;99.90;;;;;;5044867;28;19992;-68
2023/09/17 13:41:08;;;;;;;;;;;18.70;99.90;;;;;;5036493;28;20012;-72
2023/09/17 13:43:33;;;;;;;;;;;18.70;99.90;;;;;;5046422;28;20379;-69
2023/09/17 13:45:59;;;;;;;;;;;18.70;99.90;;;;;;5044751;28;20435;-69
2023/09/17 13:48:25;;;;;;;;;;;18.70;99.90;;;;;;5037835;28;20026;-79
2023/09/17 13:50:51;;;;;;;;;;;18.70;99.90;;;;;;5037820;28;19985;-68
2023/09/17 13:53:17;;;;;;;;;;;18.80;99.90;;;;;;5041177;28;20231;-69
2023/09/17 13:55:43;;;;;;;;;;;18.80;99.90;;;;;;5041387;28;19917;-68
2023/09/17 13:58:10;;;;;;;;;;;18.90;99.90;;;;;;5039802;28;19905;-69
2023/09/17 14:00:35;;;;;;;;;;;18.90;99.90;;;;;;5046511;28;19915;-68
2023/09/17 14:03:02;;;;;;;;;;;18.90;99.90;;;;;;5037646;28;20300;-81
2023/09/17 14:05:27;;;;;;;;;;;18.90;99.90;;;;;;5039337;28;20505;-79
2023/09/17 14:07:53;;;;;;;;;;;18.90;99.90;;;;;;5038331;28;19940;-69
2023/09/17 14:10:18;;;;;;;;;;;19.00;99.90;;;;;;5041316;28;19909;-68
2023/09/17 14:12:44;;;;;;;;;;;19.00;99.90;;;;;;5040822;28;19996;-68